McBee, South Carolina
Current Conditions -  °F | °C
As of 10:15 AM on Saturday 25 Oct 2014 (Local Time) from KUDG Reporting Station
Clear Clear  
Wind Chill: 61°   Ceiling: Unl
Heat Index: 61°   Visibility: 10mi
Dew Point: 43°   Wind: 7mph
Humidity: 52%   Direction: 20°NNE
Pressure: 30.04"   Gusts: NA
Location:  34.47°N, 80.26°W
Report Text: KUDG 251415Z AUTO 02006KT 10SM CLR 16/06 A3004 RMK AO1
Loading
Personal Weather Stations






























Interactive Weather Map
Tropical Storm Tracking
New forecast layout! Learn more

10-Day Weather Forecast

Advertisements
Track Severe Weather on mobile